Time;durP1;ratioP1;P1;durP2;ratioP2;P2;SDS_P1;SDS_P2;PMS_P1;PMS_P2;Temp;Humidity;BMP_temperature;BMP_pressure;BME280_temperature;BME280_humidity;BME280_pressure;Samples;Min_cycle;Max_cycle;Signal;HPM_P1;HPM_P2
2023/04/09 00:00:33;;;;;;;15.60;11.35;;;8.10;99.90;;;;;;4962651;28;20019;-80
2023/04/09 00:03:02;;;;;;;15.63;10.13;;;8.10;99.90;;;;;;4963289;28;20055;-78
2023/04/09 00:05:28;;;;;;;17.60;11.25;;;8.10;99.90;;;;;;4963286;29;20091;-78
2023/04/09 00:08:02;;;;;;;16.88;10.38;;;8.10;99.90;;;;;;4963846;29;20038;-78
2023/04/09 00:10:28;;;;;;;16.10;10.45;;;8.10;99.90;;;;;;4975050;28;20030;-76
2023/04/09 00:13:00;;;;;;;15.63;10.50;;;8.10;99.90;;;;;;4959323;28;20047;-77
2023/04/09 00:15:31;;;;;;;17.17;10.70;;;8.00;99.90;;;;;;4959994;28;20082;-78
2023/04/09 00:18:03;;;;;;;16.23;10.63;;;8.00;99.90;;;;;;4958630;29;20086;-78
2023/04/09 00:20:32;;;;;;;17.33;11.10;;;8.00;99.90;;;;;;4960138;28;20031;-76
2023/04/09 00:23:00;;;;;;;15.07;9.90;;;8.00;99.90;;;;;;4959320;28;20353;-77
2023/04/09 00:25:27;;;;;;;15.65;10.68;;;8.00;99.90;;;;;;4973945;28;20023;-77
2023/04/09 00:28:05;;;;;;;15.73;10.77;;;8.00;99.90;;;;;;4957549;28;20027;-77
2023/04/09 00:30:34;;;;;;;16.33;10.88;;;8.00;99.90;;;;;;4958996;29;20110;-75
2023/04/09 00:33:03;;;;;;;18.63;9.88;;;8.00;99.90;;;;;;4957870;28;20121;-77
2023/04/09 00:35:34;;;;;;;15.43;10.30;;;7.90;99.90;;;;;;4959823;29;20019;-77
2023/04/09 00:38:02;;;;;;;18.10;10.75;;;7.90;99.90;;;;;;4958781;28;20024;-78
2023/04/09 00:40:34;;;;;;;15.73;10.50;;;8.00;99.90;;;;;;4959058;29;20393;-77
2023/04/09 00:43:01;;;;;;;15.98;9.82;;;7.90;99.90;;;;;;4959322;28;20123;-78
2023/04/09 00:45:33;;;;;;;14.48;10.05;;;7.90;99.90;;;;;;4958206;29;20023;-76
2023/04/09 00:47:59;;;;;;;16.05;9.75;;;7.90;99.90;;;;;;4955434;28;20114;-77
2023/04/09 00:50:31;;;;;;;16.20;10.57;;;7.90;99.90;;;;;;4957040;28;20079;-77
2023/04/09 00:52:56;;;;;;;14.35;9.50;;;7.90;99.90;;;;;;4959096;28;20027;-80
2023/04/09 00:55:25;;;;;;;16.73;10.30;;;7.90;99.90;;;;;;4959287;28;20500;-77
2023/04/09 00:57:51;;;;;;;14.95;10.75;;;7.90;99.90;;;;;;4942956;29;20477;-77
2023/04/09 01:00:19;;;;;;;15.60;10.48;;;7.90;99.90;;;;;;4942662;29;20020;-78
2023/04/09 01:02:46;;;;;;;14.88;9.70;;;7.90;99.90;;;;;;4941891;29;20030;-78
2023/04/09 01:05:13;;;;;;;17.40;10.50;;;7.80;99.90;;;;;;4942846;29;20031;-77
2023/04/09 01:08:19;;;;;;;16.45;10.88;;;7.80;99.90;;;;;;4956557;28;20039;-77
2023/04/09 01:10:56;;;;;;;15.55;9.93;;;7.80;99.90;;;;;;4942159;29;20031;-78
2023/04/09 01:14:13;;;;;;;16.02;10.70;;;7.80;99.90;;;;;;4944365;28;20122;-77
2023/04/09 01:16:43;;;;;;;15.95;10.43;;;7.80;99.90;;;;;;4969776;28;20039;-77
2023/04/09 01:19:40;;;;;;;16.48;11.18;;;7.80;99.90;;;;;;4963575;28;20104;-78
2023/04/09 01:22:20;;;;;;;20.15;12.48;;;7.80;99.90;;;;;;4964643;28;20038;-78
2023/04/09 01:25:06;;;;;;;15.60;10.77;;;7.80;99.90;;;;;;4967965;28;20035;-78
2023/04/09 01:28:05;;;;;;;19.92;11.30;;;7.80;99.90;;;;;;4966708;28;20042;-78
2023/04/09 01:30:34;;;;;;;19.02;12.30;;;7.80;99.90;;;;;;4982408;28;20027;-77
2023/04/09 01:33:05;;;;;;;20.30;11.15;;;7.80;99.90;;;;;;4967744;28;20031;-78
2023/04/09 01:35:30;;;;;;;21.13;12.35;;;7.80;99.90;;;;;;4967162;28;20372;-78
2023/04/09 01:37:57;;;;;;;18.15;11.52;;;7.80;99.90;;;;;;4966708;28;20051;-78
2023/04/09 01:40:23;;;;;;;15.70;10.90;;;7.80;99.90;;;;;;4982766;28;20050;-78
2023/04/09 01:43:00;;;;;;;17.85;11.90;;;7.80;99.90;;;;;;4967710;28;20024;-78
2023/04/09 01:45:35;;;;;;;20.42;12.48;;;7.80;99.90;;;;;;4967120;28;20023;-77
2023/04/09 01:48:03;;;;;;;19.73;12.20;;;7.80;99.90;;;;;;4981682;28;20039;-77
2023/04/09 01:50:29;;;;;;;18.30;12.18;;;7.80;99.90;;;;;;4967820;28;20023;-77
2023/04/09 01:53:01;;;;;;;17.27;10.98;;;7.80;99.90;;;;;;4965948;28;20090;-77
2023/04/09 01:55:33;;;;;;;17.08;11.25;;;7.80;99.90;;;;;;4980477;28;20051;-77
2023/04/09 01:58:08;;;;;;;16.65;11.20;;;7.80;99.90;;;;;;4981001;28;20126;-77
2023/04/09 02:00:58;;;;;;;14.85;9.63;;;7.70;99.90;;;;;;4967433;28;20019;-78
2023/04/09 02:03:57;;;;;;;16.25;10.55;;;7.70;99.90;;;;;;4968329;28;20039;-80
2023/04/09 02:06:51;;;;;;;17.85;10.73;;;7.70;99.90;;;;;;4963715;28;20074;-77
2023/04/09 02:09:30;;;;;;;15.10;10.60;;;7.70;99.90;;;;;;4978485;28;20031;-78
2023/04/09 02:12:01;;;;;;;18.30;11.27;;;7.70;99.90;;;;;;4978153;28;20118;-78
2023/04/09 02:14:28;;;;;;;16.98;11.52;;;7.70;99.90;;;;;;4965445;28;20124;-79
2023/04/09 02:16:56;;;;;;;20.60;12.15;;;7.70;99.90;;;;;;4968096;29;20030;-78
2023/04/09 02:19:55;;;;;;;17.92;11.88;;;7.70;99.90;;;;;;4984730;28;20019;-78
2023/04/09 02:22:21;;;;;;;18.38;11.63;;;7.70;99.90;;;;;;4953822;28;20031;-78
2023/04/09 02:24:49;;;;;;;18.73;11.38;;;7.70;99.90;;;;;;4964446;28;20024;-77
2023/04/09 02:27:22;;;;;;;18.95;12.75;;;7.70;99.90;;;;;;4963646;29;20027;-77
2023/04/09 02:29:47;;;;;;;20.13;11.98;;;7.70;99.90;;;;;;4962745;28;20023;-77
2023/04/09 02:32:16;;;;;;;21.05;12.90;;;7.70;99.90;;;;;;4962055;28;20082;-78
2023/04/09 02:34:44;;;;;;;21.23;13.35;;;7.70;99.90;;;;;;4975989;28;20027;-76
2023/04/09 02:37:13;;;;;;;17.23;11.68;;;7.70;99.90;;;;;;4976938;28;20023;-77
2023/04/09 02:39:39;;;;;;;19.58;11.52;;;7.70;99.90;;;;;;4962071;29;20023;-77
2023/04/09 02:42:06;;;;;;;17.58;11.27;;;7.70;99.90;;;;;;4976138;28;20034;-77
2023/04/09 02:44:32;;;;;;;19.92;12.63;;;7.70;99.90;;;;;;4961562;28;20019;-76
2023/04/09 02:46:58;;;;;;;18.23;12.75;;;7.60;99.90;;;;;;4961239;28;20019;-78
2023/04/09 02:49:23;;;;;;;17.88;11.52;;;7.70;99.90;;;;;;4960884;29;20027;-77
2023/04/09 02:51:55;;;;;;;19.15;11.93;;;7.70;99.90;;;;;;4961811;28;20045;-77
2023/04/09 02:54:27;;;;;;;18.27;11.48;;;7.70;99.90;;;;;;4958792;29;20034;-77
2023/04/09 02:56:52;;;;;;;20.63;12.07;;;7.70;99.90;;;;;;4972956;28;20024;-76
2023/04/09 02:59:24;;;;;;;19.58;12.20;;;7.70;99.90;;;;;;4958510;29;20024;-77
2023/04/09 03:01:59;;;;;;;19.40;12.45;;;7.70;99.90;;;;;;4959080;28;20046;-77
2023/04/09 03:04:32;;;;;;;16.75;11.65;;;7.70;99.90;;;;;;4959868;29;20291;-77
2023/04/09 03:07:01;;;;;;;14.70;10.27;;;7.70;99.90;;;;;;4966462;28;20031;-77
2023/04/09 03:09:35;;;;;;;15.75;10.50;;;7.70;99.90;;;;;;4966491;29;20059;-78
2023/04/09 03:12:03;;;;;;;18.35;10.90;;;7.70;99.90;;;;;;4964906;28;20070;-79
2023/04/09 03:14:29;;;;;;;16.80;10.68;;;7.70;99.90;;;;;;4965470;28;20034;-78
2023/04/09 03:17:01;;;;;;;15.25;10.75;;;7.70;99.90;;;;;;4965196;29;20035;-79
2023/04/09 03:19:29;;;;;;;16.40;10.77;;;7.70;99.90;;;;;;4965296;28;20075;-79
2023/04/09 03:21:55;;;;;;;16.05;11.15;;;7.70;99.90;;;;;;4980324;28;20027;-79
2023/04/09 03:24:24;;;;;;;16.98;10.88;;;7.70;99.90;;;;;;4964567;28;20046;-79
2023/04/09 03:26:50;;;;;;;19.67;12.48;;;7.70;99.90;;;;;;4964364;28;20024;-78
2023/04/09 03:29:25;;;;;;;18.67;11.90;;;7.70;99.90;;;;;;4965153;29;20099;-78
2023/04/09 03:31:54;;;;;;;19.48;12.35;;;7.70;99.90;;;;;;4963966;28;20035;-79
2023/04/09 03:34:23;;;;;;;20.83;13.70;;;7.70;99.90;;;;;;4964427;28;20038;-78
2023/04/09 03:36:55;;;;;;;20.50;12.60;;;7.60;99.90;;;;;;4963893;28;20023;-78
2023/04/09 03:39:29;;;;;;;18.42;12.32;;;7.70;99.90;;;;;;4964469;28;20085;-79
2023/04/09 03:41:58;;;;;;;19.52;13.05;;;7.60;99.90;;;;;;4964193;28;20110;-78
2023/04/09 03:44:27;;;;;;;21.77;13.80;;;7.60;99.90;;;;;;4960290;28;20023;-77
2023/04/09 03:47:06;;;;;;;20.30;13.43;;;7.60;99.90;;;;;;4973863;28;20035;-76
2023/04/09 03:49:35;;;;;;;21.10;14.23;;;7.60;99.90;;;;;;4958450;28;20419;-77
2023/04/09 03:52:05;;;;;;;20.80;12.65;;;7.60;99.90;;;;;;4962437;28;20081;-79
2023/04/09 03:54:31;;;;;;;20.50;13.32;;;7.60;99.90;;;;;;4962011;28;20420;-79
2023/04/09 03:57:00;;;;;;;19.60;13.48;;;7.60;99.90;;;;;;4961723;28;20105;-77
2023/04/09 03:59:25;;;;;;;22.10;13.13;;;7.60;99.90;;;;;;4961751;28;20048;-78
2023/04/09 04:01:57;;;;;;;21.10;13.98;;;7.60;99.90;;;;;;4957555;28;20384;-78
2023/04/09 04:04:26;;;;;;;18.83;13.13;;;7.60;99.90;;;;;;4961571;28;20031;-76
2023/04/09 04:06:55;;;;;;;21.42;13.57;;;7.60;99.90;;;;;;4976108;28;20027;-77
2023/04/09 04:09:32;;;;;;;19.60;12.68;;;7.60;99.90;;;;;;4961377;28;20023;-77
2023/04/09 04:12:00;;;;;;;20.20;12.18;;;7.50;99.90;;;;;;4970023;28;20067;-76
2023/04/09 04:14:26;;;;;;;18.27;12.18;;;7.50;99.90;;;;;;4958658;28;20363;-77
2023/04/09 04:16:52;;;;;;;18.02;11.63;;;7.40;99.90;;;;;;4958303;28;20058;-78
2023/04/09 04:19:17;;;;;;;20.65;12.95;;;7.40;99.90;;;;;;4974943;28;20098;-78
2023/04/09 04:21:46;;;;;;;22.85;14.13;;;7.30;99.90;;;;;;4959773;28;20050;-78
2023/04/09 04:24:11;;;;;;;21.25;13.63;;;7.30;99.90;;;;;;4971604;23;20043;-75
2023/04/09 04:26:40;;;;;;;19.52;12.48;;;7.20;99.90;;;;;;4970909;28;20027;-75
2023/04/09 04:29:09;;;;;;;20.77;13.77;;;7.20;99.90;;;;;;4954856;28;20038;-73
2023/04/09 04:31:34;;;;;;;20.27;13.25;;;7.20;99.90;;;;;;4955924;29;20027;-75
2023/04/09 04:34:06;;;;;;;22.65;13.98;;;7.10;99.90;;;;;;4956193;28;20038;-75
2023/04/09 04:36:35;;;;;;;21.95;13.52;;;7.10;99.90;;;;;;4955888;29;20088;-76
2023/04/09 04:39:01;;;;;;;25.00;14.35;;;7.10;99.90;;;;;;4955860;29;20035;-75
2023/04/09 04:41:30;;;;;;;25.60;15.32;;;7.10;99.90;;;;;;4970424;28;20039;-73
2023/04/09 04:44:04;;;;;;;23.25;14.65;;;7.10;99.90;;;;;;4955247;28;20027;-74
2023/04/09 04:46:33;;;;;;;20.83;12.77;;;7.10;99.90;;;;;;4954176;28;20074;-75
2023/04/09 04:48:58;;;;;;;23.88;14.15;;;7.10;99.90;;;;;;4955689;29;20090;-75
2023/04/09 04:51:30;;;;;;;25.20;14.60;;;7.10;99.90;;;;;;4968628;28;20043;-75
2023/04/09 04:53:59;;;;;;;23.80;13.70;;;7.10;99.90;;;;;;4970308;28;20507;-75
2023/04/09 04:56:34;;;;;;;22.60;13.88;;;7.10;99.90;;;;;;4972072;28;20369;-75
2023/04/09 04:58:59;;;;;;;27.52;13.65;;;7.10;99.90;;;;;;4957973;29;20038;-74
2023/04/09 05:01:25;;;;;;;21.33;13.43;;;7.10;99.90;;;;;;4959520;28;20079;-74
2023/04/09 05:03:51;;;;;;;26.70;14.60;;;7.20;99.90;;;;;;4959228;28;20058;-74
2023/04/09 05:06:22;;;;;;;23.73;14.52;;;7.10;99.90;;;;;;4956835;28;20121;-74
2023/04/09 05:08:47;;;;;;;22.42;14.55;;;7.10;99.90;;;;;;4977557;28;20243;-74
2023/04/09 05:11:16;;;;;;;24.65;14.05;;;7.10;99.90;;;;;;4978565;28;20120;-75
2023/04/09 05:13:42;;;;;;;22.45;13.02;;;7.20;99.90;;;;;;4993246;28;20042;-75
2023/04/09 05:16:07;;;;;;;25.63;14.50;;;7.10;99.90;;;;;;4978424;28;20022;-75
2023/04/09 05:18:39;;;;;;;23.15;14.18;;;7.10;99.90;;;;;;4978370;28;20023;-75
2023/04/09 05:21:17;;;;;;;21.73;13.15;;;7.20;99.90;;;;;;4978171;28;20057;-75
2023/04/09 05:23:45;;;;;;;22.67;13.93;;;7.10;99.90;;;;;;4978074;28;20031;-74
2023/04/09 05:26:11;;;;;;;21.67;13.82;;;7.20;99.90;;;;;;4977509;28;20551;-74
2023/04/09 05:28:37;;;;;;;24.65;14.00;;;7.10;99.90;;;;;;4977904;28;20122;-74
2023/04/09 05:31:11;;;;;;;20.52;12.98;;;7.20;99.90;;;;;;4977906;28;20022;-74
2023/04/09 05:33:40;;;;;;;21.70;13.23;;;7.20;99.90;;;;;;4978083;28;20081;-74
2023/04/09 05:36:13;;;;;;;22.85;13.43;;;7.20;99.90;;;;;;4977572;28;20027;-74
2023/04/09 05:38:46;;;;;;;21.90;13.85;;;7.20;99.90;;;;;;4978188;28;20022;-73
2023/04/09 05:41:14;;;;;;;25.92;15.35;;;7.30;99.90;;;;;;4992732;28;20031;-74
2023/04/09 05:43:41;;;;;;;24.80;13.80;;;7.30;99.90;;;;;;4977128;28;20062;-74
2023/04/09 05:46:07;;;;;;;25.92;14.90;;;7.30;99.90;;;;;;4976599;28;20042;-74
2023/04/09 05:48:36;;;;;;;23.15;13.60;;;7.30;99.90;;;;;;4976885;28;20030;-75
2023/04/09 05:51:02;;;;;;;24.30;14.30;;;7.30;99.90;;;;;;4991507;28;20019;-73
2023/04/09 05:53:28;;;;;;;26.05;15.43;;;7.40;99.90;;;;;;4991156;28;20031;-74
2023/04/09 05:55:53;;;;;;;24.90;14.02;;;7.40;99.90;;;;;;4976931;28;20029;-74
2023/04/09 05:58:19;;;;;;;24.10;14.75;;;7.40;99.90;;;;;;4976561;28;20030;-75
2023/04/09 06:00:44;;;;;;;23.52;14.60;;;7.50;99.90;;;;;;4976875;28;20221;-75
2023/04/09 06:03:10;;;;;;;22.73;14.27;;;7.50;99.90;;;;;;4977390;28;20511;-74
2023/04/09 06:05:36;;;;;;;24.73;14.63;;;7.50;99.90;;;;;;4976408;28;20035;-74
2023/04/09 06:08:02;;;;;;;26.83;15.63;;;7.50;99.90;;;;;;4975041;28;20034;-74
2023/04/09 06:10:31;;;;;;;23.55;14.75;;;7.50;99.90;;;;;;4960748;28;20138;-75
2023/04/09 06:12:57;;;;;;;25.52;15.98;;;7.50;99.90;;;;;;4956241;29;20046;-75
2023/04/09 06:15:26;;;;;;;27.05;16.45;;;7.50;99.90;;;;;;4956220;28;20118;-75
2023/04/09 06:17:54;;;;;;;24.25;14.77;;;7.50;99.90;;;;;;4957123;28;20027;-73
2023/04/09 06:20:20;;;;;;;23.33;14.82;;;7.60;99.90;;;;;;4955349;28;20031;-77
2023/04/09 06:22:52;;;;;;;27.67;15.98;;;7.60;99.90;;;;;;4957501;28;20066;-74
2023/04/09 06:25:17;;;;;;;25.15;15.57;;;7.70;99.90;;;;;;4955829;28;20087;-76
2023/04/09 06:27:46;;;;;;;25.40;15.68;;;7.80;99.90;;;;;;4957155;28;20027;-74
2023/04/09 06:30:15;;;;;;;25.02;15.50;;;7.80;99.90;;;;;;4956496;28;20039;-74
2023/04/09 06:32:47;;;;;;;24.60;15.68;;;7.90;99.90;;;;;;4956430;28;20507;-74
2023/04/09 06:35:19;;;;;;;25.02;16.05;;;8.00;99.90;;;;;;4956889;28;20111;-74
2023/04/09 06:37:56;;;;;;;23.13;16.08;;;8.00;99.90;;;;;;4968299;28;20090;-75
2023/04/09 06:40:31;;;;;;;24.27;15.60;;;8.10;99.90;;;;;;4937584;29;20098;-75
2023/04/09 06:42:57;;;;;;;22.25;14.65;;;8.10;99.90;;;;;;4937783;29;20028;-76
2023/04/09 06:45:26;;;;;;;21.63;14.10;;;8.10;99.90;;;;;;4947640;29;20027;-76
2023/04/09 06:47:52;;;;;;;23.08;13.50;;;8.10;99.90;;;;;;4955448;28;20058;-74
2023/04/09 06:50:23;;;;;;;19.75;13.05;;;8.10;99.90;;;;;;4956183;28;20042;-75
2023/04/09 06:53:01;;;;;;;20.85;13.07;;;8.10;99.90;;;;;;4956196;28;20588;-74
2023/04/09 06:55:30;;;;;;;20.35;12.80;;;8.10;99.90;;;;;;4970532;28;20023;-75
2023/04/09 06:58:04;;;;;;;20.08;13.15;;;8.20;99.90;;;;;;4975812;28;20494;-74
2023/04/09 07:00:30;;;;;;;19.15;12.82;;;8.20;99.90;;;;;;4974601;28;20042;-74
2023/04/09 07:03:06;;;;;;;18.08;11.57;;;8.30;99.90;;;;;;4974224;28;20046;-77
2023/04/09 07:05:32;;;;;;;19.83;12.18;;;8.40;99.90;;;;;;4974902;28;20023;-74
2023/04/09 07:08:00;;;;;;;18.60;12.63;;;8.50;99.90;;;;;;4975309;28;20054;-74
2023/04/09 07:10:29;;;;;;;16.05;11.40;;;8.60;99.90;;;;;;4985288;28;20027;-73
2023/04/09 07:12:55;;;;;;;17.55;11.80;;;8.60;99.90;;;;;;4955743;28;20038;-75
2023/04/09 07:15:20;;;;;;;16.08;10.65;;;8.70;99.90;;;;;;4955698;29;20396;-75
2023/04/09 07:17:46;;;;;;;18.17;11.50;;;8.70;99.90;;;;;;4955452;28;20481;-75
2023/04/09 07:20:11;;;;;;;15.15;10.07;;;8.70;99.90;;;;;;4954908;28;20024;-74
2023/04/09 07:22:38;;;;;;;15.50;11.10;;;8.80;99.90;;;;;;4970084;28;20086;-74
2023/04/09 07:25:04;;;;;;;16.48;11.13;;;8.70;99.90;;;;;;4955407;28;20126;-74
2023/04/09 07:27:30;;;;;;;15.73;10.43;;;8.70;99.90;;;;;;4969957;28;20039;-74
2023/04/09 07:29:57;;;;;;;16.77;11.45;;;8.70;99.90;;;;;;4956866;28;20027;-75
2023/04/09 07:32:29;;;;;;;15.68;10.93;;;8.70;99.90;;;;;;4973418;28;20033;-73
2023/04/09 07:35:03;;;;;;;18.25;11.20;;;8.70;99.90;;;;;;4967958;28;20019;-74
2023/04/09 07:37:33;;;;;;;15.75;10.00;;;8.80;99.90;;;;;;4955919;29;20027;-74
2023/04/09 07:39:59;;;;;;;15.13;10.10;;;8.80;99.90;;;;;;4956182;28;20015;-74
2023/04/09 07:42:25;;;;;;;14.25;10.15;;;8.80;99.90;;;;;;4951014;28;20035;-73
2023/04/09 07:44:52;;;;;;;14.23;9.55;;;8.80;99.90;;;;;;4935737;29;20147;-73
2023/04/09 07:47:18;;;;;;;15.25;9.93;;;8.90;99.90;;;;;;4934460;29;20027;-73
2023/04/09 07:49:43;;;;;;;15.68;9.82;;;9.00;99.90;;;;;;4934743;29;20032;-75
2023/04/09 07:52:09;;;;;;;15.50;10.18;;;8.90;99.90;;;;;;4935658;29;20412;-75
2023/04/09 07:54:35;;;;;;;13.95;9.20;;;9.00;99.90;;;;;;4935686;29;20024;-75
2023/04/09 07:57:01;;;;;;;16.45;10.07;;;9.10;99.90;;;;;;4936017;29;20023;-73
2023/04/09 07:59:27;;;;;;;15.15;9.93;;;9.20;99.90;;;;;;4935520;29;20481;-73
2023/04/09 08:01:53;;;;;;;14.75;9.38;;;9.30;99.90;;;;;;4949968;28;20030;-74
2023/04/09 08:04:18;;;;;;;15.00;9.77;;;9.50;99.90;;;;;;4935259;29;20055;-73
2023/04/09 08:06:49;;;;;;;13.63;9.68;;;9.60;99.90;;;;;;4935082;29;20107;-71
2023/04/09 08:09:20;;;;;;;13.90;9.68;;;9.60;99.90;;;;;;4950850;28;20032;-75
2023/04/09 08:11:46;;;;;;;12.90;9.20;;;9.60;99.90;;;;;;4944731;29;20325;-75
2023/04/09 08:14:14;;;;;;;15.25;10.10;;;9.60;99.90;;;;;;4953509;28;20031;-72
2023/04/09 08:16:41;;;;;;;12.35;8.55;;;9.50;99.90;;;;;;4963019;28;20026;-73
2023/04/09 08:19:07;;;;;;;15.30;10.20;;;9.50;99.90;;;;;;4973990;28;20471;-71
2023/04/09 08:21:33;;;;;;;15.13;9.55;;;9.40;99.90;;;;;;4963196;28;20384;-72
2023/04/09 08:24:03;;;;;;;12.48;8.85;;;9.40;99.90;;;;;;4954449;28;20042;-74
2023/04/09 08:26:35;;;;;;;13.38;8.73;;;9.40;99.90;;;;;;4952186;28;20027;-74
2023/04/09 08:29:00;;;;;;;13.20;8.57;;;9.40;99.90;;;;;;4944234;28;20027;-76
2023/04/09 08:31:30;;;;;;;14.55;10.15;;;9.30;99.90;;;;;;4955453;28;20042;-74
2023/04/09 08:33:55;;;;;;;12.52;8.90;;;9.30;99.90;;;;;;4954921;28;20019;-75
2023/04/09 08:36:34;;;;;;;11.95;7.38;;;9.20;99.90;;;;;;4971156;28;20073;-74
2023/04/09 08:39:00;;;;;;;9.73;6.05;;;9.30;99.90;;;;;;4955052;28;20471;-73
2023/04/09 08:41:28;;;;;;;9.20;6.60;;;9.50;99.90;;;;;;4963739;28;20090;-73
2023/04/09 08:43:55;;;;;;;10.88;7.00;;;9.50;99.90;;;;;;4987842;28;20077;-73
2023/04/09 08:46:24;;;;;;;11.93;6.80;;;9.60;99.90;;;;;;4960142;28;20341;-73
2023/04/09 08:48:50;;;;;;;9.30;5.95;;;9.70;99.90;;;;;;4951847;28;20040;-74
2023/04/09 08:51:18;;;;;;;9.05;5.95;;;9.80;99.90;;;;;;4958247;28;20042;-74
2023/04/09 08:54:13;;;;;;;11.38;5.85;;;9.90;99.80;;;;;;4952666;28;20122;-72
2023/04/09 08:56:46;;;;;;;9.63;6.13;;;10.10;98.80;;;;;;4957068;28;20023;-74
2023/04/09 08:59:17;;;;;;;9.00;6.10;;;10.20;98.10;;;;;;4959703;28;20026;-76
2023/04/09 09:01:48;;;;;;;8.60;6.05;;;10.30;97.90;;;;;;4971555;28;20054;-72
2023/04/09 09:04:16;;;;;;;8.85;6.18;;;10.40;97.10;;;;;;4960217;28;20026;-74
2023/04/09 09:06:45;;;;;;;8.60;6.15;;;10.50;97.30;;;;;;4953059;28;20040;-73
2023/04/09 09:09:12;;;;;;;8.02;5.88;;;10.60;97.00;;;;;;4941845;28;20564;-72
2023/04/09 09:11:47;;;;;;;9.80;7.00;;;10.70;96.50;;;;;;4959468;28;20027;-73
2023/04/09 09:14:19;;;;;;;8.52;6.15;;;10.70;96.20;;;;;;4958480;28;20109;-74
2023/04/09 09:17:05;;;;;;;7.25;5.57;;;10.80;95.40;;;;;;4962096;28;20032;-74
2023/04/09 09:19:32;;;;;;;10.10;6.88;;;10.80;95.30;;;;;;4955396;28;20031;-73
2023/04/09 09:22:03;;;;;;;8.65;6.22;;;10.70;95.00;;;;;;4966251;28;20066;-74
2023/04/09 09:24:45;;;;;;;9.85;6.85;;;10.60;95.10;;;;;;4968915;28;20035;-73
2023/04/09 09:27:33;;;;;;;9.02;6.55;;;10.60;95.30;;;;;;4936148;29;20040;-74
2023/04/09 09:30:03;;;;;;;10.32;6.38;;;10.50;95.10;;;;;;4960247;28;20023;-74
2023/04/09 09:32:32;;;;;;;10.45;5.95;;;10.60;95.00;;;;;;4954846;28;20090;-74
2023/04/09 09:35:06;;;;;;;9.02;6.30;;;10.60;94.80;;;;;;4956929;28;20038;-73
2023/04/09 09:37:32;;;;;;;10.00;6.32;;;10.60;95.00;;;;;;4959026;28;20473;-73
2023/04/09 09:40:01;;;;;;;9.65;5.93;;;10.50;95.40;;;;;;4956909;28;20027;-73
2023/04/09 09:42:26;;;;;;;11.45;6.88;;;10.60;94.80;;;;;;4964539;28;20031;-73
2023/04/09 09:44:54;;;;;;;7.90;6.07;;;10.60;94.60;;;;;;4959812;28;20397;-73
2023/04/09 09:47:20;;;;;;;8.85;6.80;;;10.60;94.40;;;;;;4975853;28;20472;-73
2023/04/09 09:49:55;;;;;;;9.68;6.43;;;10.60;94.80;;;;;;4961199;28;20027;-73
2023/04/09 09:52:26;;;;;;;11.68;7.43;;;10.60;95.10;;;;;;4964506;28;20105;-74
2023/04/09 09:54:53;;;;;;;12.32;8.15;;;10.50;95.40;;;;;;4957741;28;20027;-72
2023/04/09 09:57:22;;;;;;;11.27;7.93;;;10.40;95.80;;;;;;4977961;28;20031;-73
2023/04/09 10:00:02;;;;;;;9.98;7.15;;;10.30;96.00;;;;;;4964379;28;20383;-74
2023/04/09 10:02:36;;;;;;;10.88;7.57;;;10.20;96.40;;;;;;4955806;29;20039;-73
2023/04/09 10:05:04;;;;;;;;;;;10.30;96.50;;;;;;4949623;28;20428;-74
2023/04/09 10:07:30;;;;;;;9.35;6.93;;;10.20;96.00;;;;;;4956940;28;19965;-74
2023/04/09 10:09:58;;;;;;;11.32;7.28;;;10.30;96.20;;;;;;4961013;28;20054;-73
2023/04/09 10:12:27;;;;;;;10.32;7.35;;;10.40;95.40;;;;;;4957137;28;20035;-74
2023/04/09 10:14:55;;;;;;;10.75;7.80;;;10.60;95.80;;;;;;4951306;28;20043;-73
2023/04/09 10:17:23;;;;;;;11.15;7.68;;;10.80;95.20;;;;;;4962435;28;20074;-73
2023/04/09 10:20:16;;;;;;;9.18;6.45;;;10.90;94.90;;;;;;4956459;28;20106;-75
2023/04/09 10:22:44;;;;;;;11.95;7.10;;;10.90;94.90;;;;;;4953012;28;20054;-73
2023/04/09 10:25:13;;;;;;;10.48;7.32;;;11.00;94.40;;;;;;4958947;28;20028;-77
2023/04/09 10:27:39;;;;;;;10.05;7.32;;;11.00;93.60;;;;;;4965767;28;20031;-77
2023/04/09 10:30:09;;;;;;;8.93;6.72;;;11.00;93.70;;;;;;4960098;28;20081;-77
2023/04/09 10:32:41;;;;;;;9.77;7.13;;;11.20;93.90;;;;;;4964703;28;20111;-77
2023/04/09 10:35:25;;;;;;;11.57;8.25;;;11.20;93.50;;;;;;4959618;28;20023;-77
2023/04/09 10:37:51;;;;;;;12.07;6.63;;;11.20;93.80;;;;;;4952642;28;20123;-77
2023/04/09 10:40:20;;;;;;;10.00;7.10;;;11.30;93.30;;;;;;4959531;28;20035;-77
2023/04/09 10:42:46;;;;;;;8.73;6.45;;;11.40;93.10;;;;;;4958334;28;20027;-77
2023/04/09 10:45:18;;;;;;;8.30;6.05;;;11.50;92.40;;;;;;4953535;28;20031;-77
2023/04/09 10:47:50;;;;;;;9.70;5.53;;;11.50;91.60;;;;;;4966443;28;20491;-77
2023/04/09 10:50:26;;;;;;;6.82;4.65;;;11.60;91.10;;;;;;4959507;28;20027;-77
2023/04/09 10:52:58;;;;;;;7.60;5.45;;;11.70;89.80;;;;;;4976554;28;20061;-78
2023/04/09 10:55:39;;;;;;;7.00;5.03;;;11.70;89.00;;;;;;4959286;28;20440;-78
2023/04/09 10:58:10;;;;;;;6.55;5.28;;;11.80;89.30;;;;;;4978946;28;20228;-77
2023/04/09 11:00:44;;;;;;;5.72;4.45;;;11.80;89.10;;;;;;4956880;28;20028;-78
2023/04/09 11:03:16;;;;;;;9.30;5.50;;;11.80;86.60;;;;;;4966382;28;20019;-77
2023/04/09 11:05:43;;;;;;;8.27;5.15;;;11.90;86.50;;;;;;4974259;28;20037;-78
2023/04/09 11:08:11;;;;;;;6.38;5.00;;;11.90;86.10;;;;;;4959967;28;20059;-78
2023/04/09 11:10:37;;;;;;;5.95;4.10;;;11.90;85.50;;;;;;4963473;28;20086;-77
2023/04/09 11:13:10;;;;;;;8.50;5.30;;;11.80;83.10;;;;;;4952317;28;20035;-76
2023/04/09 11:15:39;;;;;;;9.73;5.78;;;11.70;83.60;;;;;;4956685;28;20122;-78
2023/04/09 11:18:35;;;;;;;8.70;5.05;;;11.70;85.10;;;;;;4957871;28;20086;-77
2023/04/09 11:21:03;;;;;;;6.53;4.50;;;11.70;84.70;;;;;;4953238;28;20039;-77
2023/04/09 11:23:30;;;;;;;7.05;4.68;;;11.80;84.40;;;;;;4954357;28;20036;-78
2023/04/09 11:26:02;;;;;;;8.35;5.00;;;11.80;84.50;;;;;;4959054;28;20043;-77
2023/04/09 11:28:27;;;;;;;7.93;4.85;;;11.90;83.80;;;;;;4955262;28;20054;-77
2023/04/09 11:30:53;;;;;;;6.55;5.30;;;12.00;84.20;;;;;;4958688;28;20026;-77
2023/04/09 11:33:19;;;;;;;8.18;5.45;;;11.90;83.10;;;;;;4959035;28;20031;-77
2023/04/09 11:35:44;;;;;;;8.40;4.93;;;11.90;84.70;;;;;;4968470;28;20150;-77
2023/04/09 11:38:11;;;;;;;7.43;5.10;;;11.90;83.30;;;;;;4960049;28;20120;-77
2023/04/09 11:40:47;;;;;;;8.10;5.00;;;11.90;83.00;;;;;;4982293;28;20035;-77
2023/04/09 11:43:15;;;;;;;6.95;4.57;;;11.90;82.80;;;;;;4958878;28;20106;-77
2023/04/09 11:45:41;;;;;;;6.68;4.88;;;11.90;82.70;;;;;;4966025;28;20061;-77
2023/04/09 11:48:11;;;;;;;7.53;5.50;;;12.00;83.00;;;;;;4982111;28;20038;-77
2023/04/09 11:50:36;;;;;;;7.03;4.90;;;12.00;84.00;;;;;;4963487;28;20023;-77
2023/04/09 11:53:15;;;;;;;7.35;5.13;;;12.00;84.10;;;;;;4955457;28;20030;-77
2023/04/09 11:55:46;;;;;;;6.95;5.05;;;12.20;83.90;;;;;;4972261;28;20138;-77
2023/04/09 11:58:16;;;;;;;7.90;5.57;;;12.20;84.40;;;;;;4959333;28;20023;-78
2023/04/09 12:00:42;;;;;;;6.80;4.75;;;12.40;83.60;;;;;;4964022;28;20019;-77
2023/04/09 12:03:09;;;;;;;8.40;5.75;;;12.50;84.20;;;;;;4960254;28;20103;-77
2023/04/09 12:05:38;;;;;;;7.38;4.97;;;12.50;83.30;;;;;;4951693;28;20058;-78
2023/04/09 12:08:07;;;;;;;8.27;5.20;;;12.50;83.10;;;;;;4954072;28;20035;-78
2023/04/09 12:10:37;;;;;;;7.82;5.10;;;12.50;84.00;;;;;;4956835;28;20035;-78
2023/04/09 12:13:05;;;;;;;6.85;5.10;;;12.40;83.10;;;;;;4960404;28;20042;-78
2023/04/09 12:15:40;;;;;;;10.30;5.28;;;12.40;82.50;;;;;;4962346;28;20046;-77
2023/04/09 12:18:29;;;;;;;8.95;5.55;;;12.50;82.40;;;;;;4959802;28;20023;-76
2023/04/09 12:20:57;;;;;;;9.38;5.15;;;12.60;82.30;;;;;;4949849;28;20051;-78
2023/04/09 12:23:23;;;;;;;6.63;5.00;;;12.70;81.70;;;;;;4954080;28;20032;-77
2023/04/09 12:25:55;;;;;;;6.10;4.13;;;12.80;81.10;;;;;;4966016;28;20464;-76
2023/04/09 12:28:23;;;;;;;6.95;4.80;;;12.80;79.60;;;;;;4968867;28;20571;-76
2023/04/09 12:30:50;;;;;;;7.20;4.68;;;12.70;78.80;;;;;;4962835;28;20366;-78
2023/04/09 12:33:20;;;;;;;6.65;4.95;;;12.60;79.40;;;;;;4957247;28;20031;-78
2023/04/09 12:35:51;;;;;;;7.47;4.53;;;12.70;79.90;;;;;;4959425;28;20027;-77
2023/04/09 12:38:17;;;;;;;6.25;3.95;;;12.80;79.70;;;;;;4956827;28;20337;-77
2023/04/09 12:40:43;;;;;;;6.15;4.13;;;12.80;79.90;;;;;;4956714;28;20031;-77
2023/04/09 12:43:12;;;;;;;7.00;4.43;;;12.90;79.50;;;;;;4956443;28;20059;-77
2023/04/09 12:45:38;;;;;;;6.78;4.45;;;13.10;78.60;;;;;;4964030;28;20026;-77
2023/04/09 12:48:09;;;;;;;6.40;4.20;;;13.20;78.40;;;;;;4955262;28;20132;-77
2023/04/09 12:50:38;;;;;;;5.93;4.18;;;13.30;77.50;;;;;;4958883;28;20040;-78
2023/04/09 12:53:03;;;;;;;7.60;4.90;;;13.40;77.10;;;;;;4965140;28;20392;-77
2023/04/09 12:55:35;;;;;;;7.05;4.22;;;13.50;77.00;;;;;;4955172;28;20032;-78